createdAt,value
2018-06-04T00:01:38.035Z,1011.49
2018-06-04T00:03:39.602Z,1011.45
2018-06-04T00:05:41.420Z,1011.43
2018-06-04T00:07:42.979Z,1011.43
2018-06-04T00:09:44.483Z,1011.40
2018-06-04T00:11:46.016Z,1011.41
2018-06-04T00:13:47.525Z,1011.34
2018-06-04T00:15:49.423Z,1011.32
2018-06-04T00:17:51.018Z,1011.26
2018-06-04T00:19:52.516Z,1011.27
2018-06-04T00:21:54.275Z,1011.21
2018-06-04T00:23:55.827Z,1011.15
2018-06-04T00:25:57.355Z,1011.18
2018-06-04T00:27:59.274Z,1011.13
2018-06-04T00:30:00.978Z,1011.15
2018-06-04T00:32:02.460Z,1011.14
2018-06-04T00:34:05.300Z,1011.17
2018-06-04T00:36:46.952Z,1011.15
2018-06-04T00:38:48.376Z,1011.15
2018-06-04T00:40:49.798Z,1011.13
2018-06-04T00:42:51.304Z,1011.19
2018-06-04T00:44:52.719Z,1011.21
2018-06-04T00:47:35.279Z,1011.23
2018-06-04T00:49:36.693Z,1011.27
2018-06-04T00:51:38.116Z,1011.26
2018-06-04T00:53:39.546Z,1011.24
2018-06-04T00:56:22.109Z,1011.24
2018-06-04T00:58:23.525Z,1011.21
2018-06-04T01:00:24.947Z,1011.20
2018-06-04T01:02:26.556Z,1011.22
2018-06-04T01:04:27.956Z,1011.19
2018-06-04T01:07:10.647Z,1011.27
2018-06-04T01:09:12.063Z,1011.26
2018-06-04T01:11:13.648Z,1011.23
2018-06-04T01:13:15.077Z,1011.25
2018-06-04T01:15:16.491Z,1011.23
2018-06-04T01:17:58.914Z,1011.21
2018-06-04T01:20:00.362Z,1011.27
2018-06-04T01:22:01.784Z,1011.24
2018-06-04T01:24:03.215Z,1011.24
2018-06-04T01:26:44.717Z,1011.22
2018-06-04T01:28:46.504Z,1011.23
2018-06-04T01:30:47.932Z,1011.24
2018-06-04T01:32:49.713Z,1011.25
2018-06-04T01:34:51.178Z,1011.21
2018-06-04T01:37:33.894Z,1011.26
2018-06-04T01:39:35.318Z,1011.28
2018-06-04T01:41:36.739Z,1011.30
2018-06-04T01:43:38.335Z,1011.30
2018-06-04T01:45:39.817Z,1011.29
2018-06-04T01:47:41.240Z,1011.29
2018-06-04T01:49:42.675Z,1011.27
2018-06-04T01:51:44.124Z,1011.26
2018-06-04T01:53:45.880Z,1011.20
2018-06-04T01:55:47.667Z,1011.20
2018-06-04T01:57:49.109Z,1011.20
2018-06-04T01:59:50.545Z,1011.18
2018-06-04T02:01:52.004Z,1011.17
2018-06-04T02:03:53.536Z,1011.15
2018-06-04T02:05:55.002Z,1011.11
2018-06-04T02:07:56.465Z,1011.10
2018-06-04T02:09:57.906Z,1011.05
2018-06-04T02:11:59.438Z,1011.06
2018-06-04T02:14:00.866Z,1011.05
2018-06-04T02:16:02.357Z,1011.08
2018-06-04T02:18:03.867Z,1011.06
2018-06-04T02:20:05.380Z,1011.02
2018-06-04T02:22:06.855Z,1010.97
2018-06-04T02:24:08.399Z,1010.90
2018-06-04T02:26:09.900Z,1010.88
2018-06-04T02:28:11.395Z,1010.85
2018-06-04T02:30:12.905Z,1010.85
2018-06-04T02:32:14.439Z,1010.80
2018-06-04T02:34:15.949Z,1010.82
2018-06-04T02:36:17.748Z,1010.80
2018-06-04T02:38:19.529Z,1010.80
2018-06-04T02:40:21.234Z,1010.76
2018-06-04T02:42:22.710Z,1010.78
2018-06-04T02:44:24.197Z,1010.73
2018-06-04T02:46:25.706Z,1010.72
2018-06-04T02:48:27.208Z,1010.77
2018-06-04T02:50:28.718Z,1010.80
2018-06-04T02:52:30.283Z,1010.76
2018-06-04T02:54:31.808Z,1010.77
2018-06-04T02:56:33.648Z,1010.80
2018-06-04T02:58:35.285Z,1010.81
2018-06-04T03:00:36.793Z,1010.82
2018-06-04T03:02:38.353Z,1010.84
2018-06-04T03:04:40.205Z,1010.79
2018-06-04T03:06:41.773Z,1010.75
2018-06-04T03:08:43.286Z,1010.70
2018-06-04T03:11:25.725Z,1010.67
2018-06-04T03:13:27.149Z,1010.68
2018-06-04T03:15:28.586Z,1010.61
2018-06-04T03:18:11.077Z,1010.61
2018-06-04T03:20:12.503Z,1010.59
2018-06-04T03:22:13.969Z,1010.58
2018-06-04T03:24:15.437Z,1010.59
2018-06-04T03:26:58.069Z,1010.58
2018-06-04T03:28:59.529Z,1010.64
2018-06-04T03:31:42.241Z,1010.64
2018-06-04T03:33:44.074Z,1010.70
2018-06-04T03:35:45.569Z,1010.73
2018-06-04T03:38:27.068Z,1010.75
2018-06-04T03:40:28.947Z,1010.82
2018-06-04T03:42:30.376Z,1010.80
2018-06-04T03:44:31.949Z,1010.79
2018-06-04T03:47:14.353Z,1010.79
2018-06-04T03:49:15.784Z,1010.77
2018-06-04T03:51:17.505Z,1010.79
2018-06-04T03:53:18.856Z,1010.81
2018-06-04T03:55:20.273Z,1010.79
2018-06-04T03:58:03.019Z,1010.77
2018-06-04T04:00:04.427Z,1010.75
2018-06-04T04:02:06.011Z,1010.74
2018-06-04T04:04:07.457Z,1010.71
2018-06-04T04:06:08.858Z,1010.73
2018-06-04T04:08:10.280Z,1010.72
2018-06-04T04:10:11.967Z,1010.74
2018-06-04T04:12:13.394Z,1010.75
2018-06-04T04:14:14.851Z,1010.82
2018-06-04T04:16:58.066Z,1010.77
2018-06-04T04:19:00.317Z,1010.78
2018-06-04T04:21:01.845Z,1010.82
2018-06-04T04:23:03.534Z,1010.83
2018-06-04T04:25:05.028Z,1010.82
2018-06-04T04:27:06.564Z,1010.83
2018-06-04T04:29:08.081Z,1010.81
2018-06-04T04:31:09.613Z,1010.79
2018-06-04T04:33:11.369Z,1010.78
2018-06-04T04:35:13.126Z,1010.78
2018-06-04T04:37:54.759Z,1010.77
2018-06-04T04:39:56.197Z,1010.70
2018-06-04T04:41:57.705Z,1010.71
2018-06-04T04:43:59.168Z,1010.73
2018-06-04T04:46:00.570Z,1010.73
2018-06-04T04:48:02.016Z,1010.72
2018-06-04T04:50:03.673Z,1010.69
2018-06-04T04:52:05.196Z,1010.71
2018-06-04T04:54:06.631Z,1010.72
2018-06-04T04:56:08.152Z,1010.72
2018-06-04T04:58:09.615Z,1010.77
2018-06-04T05:00:11.064Z,1010.78
2018-06-04T05:02:12.656Z,1010.77
2018-06-04T05:04:14.105Z,1010.79
2018-06-04T05:06:15.542Z,1010.78
2018-06-04T05:08:17.047Z,1010.78
2018-06-04T05:10:18.488Z,1010.80
2018-06-04T05:12:19.967Z,1010.82
2018-06-04T05:14:21.858Z,1010.83
2018-06-04T05:16:23.575Z,1010.86
2018-06-04T05:18:25.356Z,1010.86
2018-06-04T05:20:26.898Z,1010.85
2018-06-04T05:22:28.419Z,1010.84
2018-06-04T05:24:30.159Z,1010.87
2018-06-04T05:26:31.783Z,1010.85
2018-06-04T05:28:33.249Z,1010.86
2018-06-04T05:30:34.750Z,1010.84
2018-06-04T05:32:36.644Z,1010.90
2018-06-04T05:34:38.395Z,1010.90
2018-06-04T05:36:40.149Z,1010.89
2018-06-04T05:38:41.916Z,1010.87
2018-06-04T05:40:43.680Z,1010.90
2018-06-04T05:42:45.455Z,1010.94
2018-06-04T05:44:47.274Z,1010.92
2018-06-04T05:46:49.033Z,1010.90
2018-06-04T05:48:50.576Z,1010.88
2018-06-04T05:50:52.261Z,1010.90
2018-06-04T05:52:54.003Z,1010.85
2018-06-04T05:54:55.420Z,1010.85
2018-06-04T05:56:56.883Z,1010.83
2018-06-04T05:58:58.385Z,1010.80
2018-06-04T06:00:59.943Z,1010.76
2018-06-04T06:03:01.502Z,1010.74
2018-06-04T06:05:03.040Z,1010.75
2018-06-04T06:07:04.561Z,1010.75
2018-06-04T06:09:06.139Z,1010.71
2018-06-04T06:11:07.987Z,1010.71
2018-06-04T06:13:09.693Z,1010.71
2018-06-04T06:15:11.286Z,1010.70
2018-06-04T06:17:12.762Z,1010.69
2018-06-04T06:19:14.317Z,1010.72
2018-06-04T06:21:15.860Z,1010.70
2018-06-04T06:23:17.658Z,1010.67
2018-06-04T06:25:19.381Z,1010.64
2018-06-04T06:27:21.191Z,1010.63
2018-06-04T06:29:22.879Z,1010.59
2018-06-04T06:31:24.420Z,1010.56
2018-06-04T06:33:25.992Z,1010.53
2018-06-04T06:35:27.542Z,1010.49
2018-06-04T06:38:09.977Z,1010.47
2018-06-04T06:40:11.406Z,1010.48
2018-06-04T06:42:12.827Z,1010.48
2018-06-04T06:44:14.259Z,1010.50
2018-06-04T06:46:15.692Z,1010.52
2018-06-04T06:48:59.089Z,1010.48
2018-06-04T06:51:01.136Z,1010.48
2018-06-04T06:53:02.553Z,1010.50
2018-06-04T06:55:03.975Z,1010.44
2018-06-04T06:57:46.612Z,1010.42
2018-06-04T06:59:48.044Z,1010.45
2018-06-04T07:01:49.469Z,1010.47
2018-06-04T07:03:50.947Z,1010.48
2018-06-04T07:05:52.624Z,1010.48
2018-06-04T07:08:34.056Z,1010.44
2018-06-04T07:10:36.045Z,1010.46
2018-06-04T07:12:37.476Z,1010.45
2018-06-04T07:14:39.106Z,1010.45
2018-06-04T07:17:21.718Z,1010.45
2018-06-04T07:19:23.866Z,1010.45
2018-06-04T07:21:25.308Z,1010.49
2018-06-04T07:23:26.721Z,1010.44
2018-06-04T07:25:28.150Z,1010.45
2018-06-04T07:27:29.650Z,1010.49
2018-06-04T07:29:31.090Z,1010.48
2018-06-04T07:31:32.577Z,1010.50
2018-06-04T07:33:34.420Z,1010.51
2018-06-04T07:35:36.155Z,1010.50
2018-06-04T07:38:19.446Z,1010.47
2018-06-04T07:40:21.454Z,1010.51
2018-06-04T07:42:22.893Z,1010.54
2018-06-04T07:44:24.319Z,1010.54
2018-06-04T07:46:25.863Z,1010.49
2018-06-04T07:48:27.322Z,1010.47
2018-06-04T07:50:28.812Z,1010.49
2018-06-04T07:52:30.566Z,1010.52
2018-06-04T07:54:32.062Z,1010.53
2018-06-04T07:56:33.645Z,1010.54
2018-06-04T07:58:35.339Z,1010.55
2018-06-04T08:00:37.100Z,1010.52
2018-06-04T08:02:38.534Z,1010.52
2018-06-04T08:04:40.059Z,1010.55
2018-06-04T08:06:41.597Z,1010.51
2018-06-04T08:08:43.139Z,1010.47
2018-06-04T08:10:44.885Z,1010.52
2018-06-04T08:12:46.667Z,1010.50
2018-06-04T08:14:48.458Z,1010.49
2018-06-04T08:16:50.034Z,1010.45
2018-06-04T08:18:51.776Z,1010.48
2018-06-04T08:20:53.306Z,1010.46
2018-06-04T08:22:55.185Z,1010.50
2018-06-04T08:24:56.999Z,1010.49
2018-06-04T08:26:58.749Z,1010.44
2018-06-04T08:29:00.257Z,1010.42
2018-06-04T08:31:01.812Z,1010.45
2018-06-04T08:33:03.323Z,1010.42
2018-06-04T08:35:05.196Z,1010.40
2018-06-04T08:37:06.677Z,1010.39
2018-06-04T08:39:08.177Z,1010.40
2018-06-04T08:41:09.699Z,1010.41
2018-06-04T08:43:11.216Z,1010.40
2018-06-04T08:45:12.687Z,1010.41
2018-06-04T08:47:14.122Z,1010.41
2018-06-04T08:49:15.553Z,1010.40
2018-06-04T08:51:17.105Z,1010.40
2018-06-04T08:53:18.726Z,1010.42
2018-06-04T08:55:20.533Z,1010.41
2018-06-04T08:58:03.383Z,1010.41
2018-06-04T09:00:04.800Z,1010.35
2018-06-04T09:02:06.529Z,1010.36
2018-06-04T09:04:08.041Z,1010.39
2018-06-04T09:06:09.491Z,1010.38
2018-06-04T09:08:52.139Z,1010.40
2018-06-04T09:10:53.875Z,1010.42
2018-06-04T09:12:55.796Z,1010.44
2018-06-04T09:14:57.225Z,1010.45
2018-06-04T09:16:58.668Z,1010.44
2018-06-04T09:19:00.138Z,1010.41
2018-06-04T09:21:01.655Z,1010.38
2018-06-04T09:23:03.473Z,1010.36
2018-06-04T09:25:05.303Z,1010.36
2018-06-04T09:27:06.526Z,1010.32
2018-06-04T09:29:07.947Z,1010.37
2018-06-04T09:31:09.394Z,1010.38
2018-06-04T09:33:10.869Z,1010.35
2018-06-04T09:35:12.702Z,1010.42
2018-06-04T09:37:14.540Z,1010.38
2018-06-04T09:39:16.053Z,1010.41
2018-06-04T09:41:17.578Z,1010.40
2018-06-04T09:43:19.095Z,1010.42
2018-06-04T09:45:20.905Z,1010.44
2018-06-04T09:48:03.323Z,1010.44
2018-06-04T09:50:04.922Z,1010.45
2018-06-04T09:52:06.419Z,1010.52
2018-06-04T09:54:07.893Z,1010.46
2018-06-04T09:56:09.331Z,1010.47
2018-06-04T09:58:51.994Z,1010.43
2018-06-04T10:00:53.764Z,1010.46
2018-06-04T10:02:55.198Z,1010.41
2018-06-04T10:04:56.653Z,1010.42
2018-06-04T10:06:58.141Z,1010.36
2018-06-04T10:09:40.571Z,1010.36
2018-06-04T10:11:42.002Z,1010.36
2018-06-04T10:13:43.431Z,1010.36
2018-06-04T10:15:44.862Z,1010.35
2018-06-04T10:18:27.304Z,1010.33
2018-06-04T10:20:28.735Z,1010.32
2018-06-04T10:22:30.363Z,1010.29
2018-06-04T10:24:32.407Z,1010.30
2018-06-04T10:26:34.054Z,1010.30
2018-06-04T10:28:35.512Z,1010.30
2018-06-04T10:30:36.978Z,1010.33
2018-06-04T10:32:38.530Z,1010.33
2018-06-04T10:34:40.021Z,1010.33
2018-06-04T10:36:41.822Z,1010.33
2018-06-04T10:39:23.960Z,1010.35
2018-06-04T10:41:25.436Z,1010.38
2018-06-04T10:43:27.265Z,1010.40
2018-06-04T10:45:28.701Z,1010.36
2018-06-04T10:47:30.260Z,1010.37
2018-06-04T10:49:31.753Z,1010.40
2018-06-04T10:51:33.440Z,1010.37
2018-06-04T10:53:35.044Z,1010.34
2018-06-04T10:55:36.587Z,1010.40
2018-06-04T10:57:38.130Z,1010.35
2018-06-04T10:59:39.531Z,1010.37
2018-06-04T11:01:41.062Z,1010.36
2018-06-04T11:03:42.605Z,1010.33
2018-06-04T11:05:44.523Z,1010.31
2018-06-04T11:07:46.060Z,1010.31
2018-06-04T11:09:47.595Z,1010.29
2018-06-04T11:11:49.178Z,1010.23
2018-06-04T11:13:50.656Z,1010.26
2018-06-04T11:15:52.225Z,1010.30
2018-06-04T11:17:53.758Z,1010.25
2018-06-04T11:19:55.343Z,1010.28
2018-06-04T11:21:57.137Z,1010.29
2018-06-04T11:23:58.979Z,1010.31
2018-06-04T11:26:00.587Z,1010.23
2018-06-04T11:28:02.075Z,1010.24
2018-06-04T11:30:03.611Z,1010.20
2018-06-04T11:32:05.429Z,1010.18
2018-06-04T11:34:06.922Z,1010.17
2018-06-04T11:36:08.460Z,1010.11
2018-06-04T11:38:10.285Z,1010.13
2018-06-04T11:40:11.911Z,1010.10
2018-06-04T11:42:13.531Z,1010.12
2018-06-04T11:44:15.311Z,1010.11
2018-06-04T11:46:16.870Z,1010.11
2018-06-04T11:48:59.308Z,1010.06
2018-06-04T11:51:00.789Z,1009.99
2018-06-04T11:53:02.228Z,1010.00
2018-06-04T11:55:04.296Z,1009.97
2018-06-04T11:57:05.727Z,1009.96
2018-06-04T11:59:07.211Z,1009.92
2018-06-04T12:01:08.848Z,1009.90
2018-06-04T12:03:10.369Z,1009.94
2018-06-04T12:05:11.923Z,1009.96
2018-06-04T12:07:13.379Z,1009.94
2018-06-04T12:09:14.908Z,1009.97
2018-06-04T12:11:16.427Z,1009.90
2018-06-04T12:13:18.240Z,1009.87
2018-06-04T12:15:19.758Z,1009.87
2018-06-04T12:18:03.019Z,1009.85
2018-06-04T12:20:04.513Z,1009.85
2018-06-04T12:22:06.374Z,1009.81
2018-06-04T12:24:07.809Z,1009.81
2018-06-04T12:26:09.269Z,1009.79
2018-06-04T12:28:51.945Z,1009.85
2018-06-04T12:30:53.400Z,1009.80
2018-06-04T12:32:54.815Z,1009.79
2018-06-04T12:34:56.577Z,1009.82
2018-06-04T12:37:39.253Z,1009.73
2018-06-04T12:39:40.682Z,1009.75
2018-06-04T12:41:42.862Z,1009.72
2018-06-04T12:43:44.608Z,1009.68
2018-06-04T12:45:46.109Z,1009.71
2018-06-04T12:47:47.575Z,1009.70
2018-06-04T12:49:49.077Z,1009.74
2018-06-04T12:51:50.546Z,1009.71
2018-06-04T12:53:52.174Z,1009.69
2018-06-04T12:55:53.868Z,1009.69
2018-06-04T12:57:55.305Z,1009.72
2018-06-04T12:59:56.824Z,1009.68
2018-06-04T13:01:58.356Z,1009.67
2018-06-04T13:04:00.216Z,1009.67
2018-06-04T13:06:01.762Z,1009.69
2018-06-04T13:08:03.376Z,1009.66
2018-06-04T13:10:04.853Z,1009.65
2018-06-04T13:12:06.608Z,1009.65
2018-06-04T13:14:08.151Z,1009.62
2018-06-04T13:16:09.652Z,1009.59
2018-06-04T13:18:11.489Z,1009.56
2018-06-04T13:20:13.256Z,1009.58
2018-06-04T13:22:14.799Z,1009.56
2018-06-04T13:24:16.306Z,1009.54
2018-06-04T13:26:17.851Z,1009.51
2018-06-04T13:28:19.548Z,1009.49
2018-06-04T13:30:21.073Z,1009.45
2018-06-04T13:32:22.745Z,1009.43
2018-06-04T13:34:24.644Z,1009.40
2018-06-04T13:36:26.157Z,1009.34
2018-06-04T13:38:27.665Z,1009.36
2018-06-04T13:40:29.200Z,1009.39
2018-06-04T13:42:30.774Z,1009.40
2018-06-04T13:44:32.562Z,1009.34
2018-06-04T13:46:34.433Z,1009.35
2018-06-04T13:48:36.208Z,1009.30
2018-06-04T13:50:37.741Z,1009.27
2018-06-04T13:52:39.321Z,1009.32
2018-06-04T13:54:40.841Z,1009.28
2018-06-04T13:56:42.499Z,1009.35
2018-06-04T13:58:44.113Z,1009.36
2018-06-04T14:00:45.658Z,1009.30
2018-06-04T14:02:47.164Z,1009.31
2018-06-04T14:04:48.907Z,1009.27
2018-06-04T14:06:50.797Z,1009.27
2018-06-04T14:08:52.441Z,1009.29
2018-06-04T14:10:54.164Z,1009.24
2018-06-04T14:12:55.939Z,1009.18
2018-06-04T14:14:57.780Z,1009.17
2018-06-04T14:17:40.239Z,1009.09
2018-06-04T14:19:41.733Z,1009.08
2018-06-04T14:21:43.174Z,1009.07
2018-06-04T14:23:44.609Z,1009.01
2018-06-04T14:25:46.278Z,1009.06
2018-06-04T14:28:28.851Z,1009.03
2018-06-04T14:30:30.288Z,1009.03
2018-06-04T14:32:31.727Z,1009.02
2018-06-04T14:34:33.175Z,1009.00
2018-06-04T14:36:34.672Z,1008.97
2018-06-04T14:38:36.350Z,1009.04
2018-06-04T14:40:37.970Z,1009.01
2018-06-04T14:42:39.565Z,1008.98
2018-06-04T14:44:41.088Z,1008.97
2018-06-04T14:46:42.938Z,1008.88
2018-06-04T14:48:44.762Z,1008.91
2018-06-04T14:50:46.722Z,1008.93
2018-06-04T14:52:48.303Z,1008.91
2018-06-04T14:54:50.472Z,1008.95
2018-06-04T14:56:52.020Z,1008.97
2018-06-04T14:59:36.727Z,1008.97
2018-06-04T15:01:38.163Z,1008.99
2018-06-04T15:03:39.599Z,1008.93
2018-06-04T15:05:41.111Z,1008.88
2018-06-04T15:08:24.365Z,1008.90
2018-06-04T15:10:26.228Z,1008.87
2018-06-04T15:12:27.775Z,1008.89
2018-06-04T15:14:30.025Z,1008.89
2018-06-04T15:16:31.723Z,1008.86
2018-06-04T15:18:33.546Z,1008.86
2018-06-04T15:20:35.787Z,1008.80
2018-06-04T15:22:37.559Z,1008.83
2018-06-04T15:24:39.239Z,1008.77
2018-06-04T15:26:41.048Z,1008.74
2018-06-04T15:28:42.598Z,1008.74
2018-06-04T15:30:44.256Z,1008.70
2018-06-04T15:32:45.779Z,1008.72
2018-06-04T15:34:47.333Z,1008.67
2018-06-04T15:36:48.876Z,1008.67
2018-06-04T15:38:50.397Z,1008.64
2018-06-04T15:40:52.140Z,1008.64
2018-06-04T15:42:53.683Z,1008.65
2018-06-04T15:44:55.299Z,1008.67
2018-06-04T15:46:56.907Z,1008.69
2018-06-04T15:48:58.757Z,1008.65
2018-06-04T15:51:00.237Z,1008.65
2018-06-04T15:53:01.786Z,1008.62
2018-06-04T15:55:03.641Z,1008.63
2018-06-04T15:57:05.215Z,1008.61
2018-06-04T15:59:06.953Z,1008.60
2018-06-04T16:01:08.471Z,1008.56
2018-06-04T16:03:10.108Z,1008.60
2018-06-04T16:05:11.592Z,1008.56
2018-06-04T16:07:13.201Z,1008.60
2018-06-04T16:09:14.747Z,1008.56
2018-06-04T16:11:16.236Z,1008.56
2018-06-04T16:13:17.834Z,1008.53
2018-06-04T16:15:19.578Z,1008.52
2018-06-04T16:17:21.228Z,1008.47
2018-06-04T16:19:22.822Z,1008.48
2018-06-04T16:21:24.741Z,1008.47
2018-06-04T16:23:26.257Z,1008.46
2018-06-04T16:25:28.173Z,1008.47
2018-06-04T16:27:30.002Z,1008.45
2018-06-04T16:29:31.554Z,1008.43
2018-06-04T16:31:33.117Z,1008.40
2018-06-04T16:33:34.646Z,1008.39
2018-06-04T16:35:36.167Z,1008.39
2018-06-04T16:37:37.862Z,1008.33
2018-06-04T16:39:39.441Z,1008.32
2018-06-04T16:41:41.513Z,1008.31
2018-06-04T16:43:43.318Z,1008.27
2018-06-04T16:45:44.852Z,1008.29
2018-06-04T16:47:46.487Z,1008.24
2018-06-04T16:49:48.038Z,1008.23
2018-06-04T16:51:49.585Z,1008.20
2018-06-04T16:53:51.316Z,1008.21
2018-06-04T16:55:52.860Z,1008.19
2018-06-04T16:57:54.547Z,1008.15
2018-06-04T16:59:56.348Z,1008.17
2018-06-04T17:01:58.198Z,1008.17
2018-06-04T17:03:59.711Z,1008.13
2018-06-04T17:06:01.247Z,1008.11
2018-06-04T17:08:43.888Z,1008.11
2018-06-04T17:10:45.763Z,1008.14
2018-06-04T17:12:47.214Z,1008.11
2018-06-04T17:14:48.657Z,1008.15
2018-06-04T17:16:50.097Z,1008.16
2018-06-04T17:19:32.807Z,1008.16
2018-06-04T17:21:34.231Z,1008.21
2018-06-04T17:23:35.773Z,1008.17
2018-06-04T17:25:37.200Z,1008.19
2018-06-04T17:28:19.625Z,1008.17
2018-06-04T17:30:21.240Z,1008.15
2018-06-04T17:32:22.910Z,1008.14
2018-06-04T17:34:24.340Z,1008.12
2018-06-04T17:36:25.801Z,1008.10
2018-06-04T17:39:08.214Z,1008.14
2018-06-04T17:41:09.768Z,1008.12
2018-06-04T17:43:11.254Z,1008.10
2018-06-04T17:45:13.275Z,1008.17
2018-06-04T17:47:14.703Z,1008.15
2018-06-04T17:49:56.178Z,1008.16
2018-06-04T17:51:57.718Z,1008.17
2018-06-04T17:53:59.435Z,1008.19
2018-06-04T17:56:00.818Z,1008.20
2018-06-04T17:58:43.430Z,1008.16
2018-06-04T18:00:44.860Z,1008.16
2018-06-04T18:02:46.292Z,1008.15
2018-06-04T18:04:47.757Z,1008.13
2018-06-04T18:06:49.237Z,1008.20
2018-06-04T18:09:31.913Z,1008.18
2018-06-04T18:11:33.390Z,1008.17
2018-06-04T18:13:34.878Z,1008.18
2018-06-04T18:15:36.311Z,1008.25
2018-06-04T18:17:37.794Z,1008.22
2018-06-04T18:19:39.358Z,1008.24
2018-06-04T18:21:40.913Z,1008.19
2018-06-04T18:23:42.358Z,1008.22
2018-06-04T18:25:44.236Z,1008.21
2018-06-04T18:27:46.117Z,1008.24
2018-06-04T18:29:47.696Z,1008.20
2018-06-04T18:31:49.242Z,1008.24
2018-06-04T18:33:50.767Z,1008.19
2018-06-04T18:35:52.439Z,1008.27
2018-06-04T18:37:54.263Z,1008.24
2018-06-04T18:39:56.072Z,1008.27
2018-06-04T18:41:57.849Z,1008.24
2018-06-04T18:43:59.617Z,1008.28
2018-06-04T18:46:01.155Z,1008.28
2018-06-04T18:48:02.957Z,1008.33
2018-06-04T18:50:04.532Z,1008.39
2018-06-04T18:52:06.123Z,1008.38
2018-06-04T18:54:07.617Z,1008.43
2018-06-04T18:56:09.166Z,1008.47
2018-06-04T18:58:10.745Z,1008.50
2018-06-04T19:00:12.305Z,1008.49
2018-06-04T19:02:14.120Z,1008.53
2018-06-04T19:04:15.854Z,1008.56
2018-06-04T19:06:17.386Z,1008.57
2018-06-04T19:08:19.010Z,1008.54
2018-06-04T19:10:20.506Z,1008.53
2018-06-04T19:12:22.080Z,1008.57
2018-06-04T19:14:23.661Z,1008.55
2018-06-04T19:16:25.206Z,1008.58
2018-06-04T19:18:26.745Z,1008.57
2018-06-04T19:20:28.373Z,1008.60
2018-06-04T19:22:30.034Z,1008.63
2018-06-04T19:24:31.929Z,1008.75
2018-06-04T19:26:33.459Z,1008.74
2018-06-04T19:28:35.254Z,1008.73
2018-06-04T19:30:36.846Z,1008.70
2018-06-04T19:32:38.603Z,1008.69
2018-06-04T19:34:40.389Z,1008.68
2018-06-04T19:36:41.888Z,1008.67
2018-06-04T19:39:24.413Z,1008.67
2018-06-04T19:41:25.831Z,1008.73
2018-06-04T19:43:27.328Z,1008.78
2018-06-04T19:45:28.750Z,1008.81
2018-06-04T19:47:30.580Z,1008.83
2018-06-04T19:50:13.389Z,1008.92
2018-06-04T19:52:15.442Z,1008.96
2018-06-04T19:54:16.832Z,1008.99
2018-06-04T19:56:18.296Z,1009.02
2018-06-04T19:59:00.733Z,1009.02
2018-06-04T20:01:02.594Z,1009.05
2018-06-04T20:03:03.934Z,1009.03
2018-06-04T20:05:05.360Z,1009.07
2018-06-04T20:07:07.059Z,1009.10
2018-06-04T20:09:48.517Z,1009.14
2018-06-04T20:11:50.171Z,1009.14
2018-06-04T20:13:52.608Z,1009.15
2018-06-04T20:15:54.192Z,1009.19
2018-06-04T20:17:55.934Z,1009.17
2018-06-04T20:19:57.755Z,1009.16
2018-06-04T20:21:59.268Z,1009.15
2018-06-04T20:24:01.078Z,1009.16
2018-06-04T20:26:02.653Z,1009.08
2018-06-04T20:28:04.243Z,1009.09
2018-06-04T20:30:50.432Z,1009.10
2018-06-04T20:32:52.799Z,1009.13
2018-06-04T20:34:54.493Z,1009.17
2018-06-04T20:36:56.347Z,1009.18
2018-06-04T20:38:58.084Z,1009.18
2018-06-04T20:40:59.510Z,1009.20
2018-06-04T20:43:01.039Z,1009.18
2018-06-04T20:45:02.893Z,1009.18
2018-06-04T20:47:04.678Z,1009.20
2018-06-04T20:49:06.365Z,1009.20
2018-06-04T20:51:07.954Z,1009.21
2018-06-04T20:53:09.451Z,1009.23
2018-06-04T20:55:11.232Z,1009.29
2018-06-04T20:57:13.122Z,1009.30
2018-06-04T20:59:14.980Z,1009.32
2018-06-04T21:01:16.791Z,1009.33
2018-06-04T21:03:18.593Z,1009.33
2018-06-04T21:05:20.137Z,1009.37
2018-06-04T21:07:21.664Z,1009.39
2018-06-04T21:09:23.224Z,1009.42
2018-06-04T21:11:24.777Z,1009.39
2018-06-04T21:13:26.286Z,1009.36
2018-06-04T21:15:27.804Z,1009.38
2018-06-04T21:17:29.297Z,1009.37
2018-06-04T21:19:31.200Z,1009.39
2018-06-04T21:21:32.762Z,1009.36
2018-06-04T21:23:34.284Z,1009.40
2018-06-04T21:25:36.095Z,1009.42
2018-06-04T21:27:37.892Z,1009.40
2018-06-04T21:29:39.738Z,1009.45
2018-06-04T21:31:41.459Z,1009.48
2018-06-04T21:33:43.015Z,1009.45
2018-06-04T21:35:44.533Z,1009.49
2018-06-04T21:37:46.038Z,1009.46
2018-06-04T21:39:47.551Z,1009.46
2018-06-04T21:41:49.075Z,1009.47
2018-06-04T21:43:50.595Z,1009.48
2018-06-04T21:45:52.858Z,1009.47
2018-06-04T21:47:54.390Z,1009.48
2018-06-04T21:49:55.941Z,1009.50
2018-06-04T21:51:57.737Z,1009.54
2018-06-04T21:53:59.268Z,1009.57
2018-06-04T21:56:00.848Z,1009.57
2018-06-04T21:58:02.538Z,1009.56
2018-06-04T22:00:45.268Z,1009.59
2018-06-04T22:02:46.690Z,1009.59
2018-06-04T22:04:48.117Z,1009.60
2018-06-04T22:06:49.548Z,1009.59
2018-06-04T22:09:31.376Z,1009.62
2018-06-04T22:11:33.506Z,1009.65
2018-06-04T22:13:35.155Z,1009.68
2018-06-04T22:15:36.598Z,1009.67
2018-06-04T22:17:38.115Z,1009.67
2018-06-04T22:20:19.553Z,1009.66
2018-06-04T22:22:21.541Z,1009.67
2018-06-04T22:24:22.990Z,1009.66
2018-06-04T22:26:24.453Z,1009.63
2018-06-04T22:28:26.413Z,1009.61
2018-06-04T22:31:07.803Z,1009.62
2018-06-04T22:33:09.227Z,1009.61
2018-06-04T22:35:11.096Z,1009.64
2018-06-04T22:37:12.915Z,1009.58
2018-06-04T22:40:05.463Z,1009.61
2018-06-04T22:43:03.338Z,1009.63
2018-06-04T22:45:53.287Z,1009.66
2018-06-04T22:49:02.057Z,1009.64
2018-06-04T22:51:56.694Z,1009.62
2018-06-04T22:54:54.980Z,1009.61
2018-06-04T22:57:49.456Z,1009.64
